Saint Clair, Michigan
Current Conditions -  °F | °C
As of 1:37 PM on Saturday 20 Dec 2014 (Local Time) from KPHN Reporting Station
Overcast Overcast  
Wind Chill: 30°   Ceiling: 2600
Heat Index: 30°   Visibility: 10mi
Dew Point: 21°   Wind: 3mph
Humidity: 69%   Direction: 170°S
Pressure: 30.27"   Gusts: NA
Location:  42.82°N, 82.49°W
Report Text: KPHN 201837Z AUTO 17003KT 10SM OVC026 M01/M06 A3027 RMK AO2
Loading
Personal Weather Stations






























Interactive Weather Map New forecast layout! Learn more

10-Day Weather Forecast

Advertisements
Track Severe Weather on mobile